createdAt,value
2018-04-30T00:00:58.676Z,26.70
2018-04-30T00:03:26.883Z,27.57
2018-04-30T00:05:54.337Z,29.47
2018-04-30T00:08:21.799Z,32.83
2018-04-30T00:10:49.234Z,31.10
2018-04-30T00:13:16.663Z,32.13
2018-04-30T00:15:44.916Z,29.90
2018-04-30T00:18:12.343Z,33.20
2018-04-30T00:20:39.802Z,30.13
2018-04-30T00:23:07.248Z,32.53
2018-04-30T00:25:34.731Z,30.63
2018-04-30T00:28:02.172Z,33.10
2018-04-30T00:30:29.657Z,32.03
2018-04-30T00:32:57.130Z,33.23
2018-04-30T00:35:24.587Z,29.30
2018-04-30T00:37:52.027Z,31.23
2018-04-30T00:40:19.464Z,29.47
2018-04-30T00:42:46.921Z,28.40
2018-04-30T00:45:14.350Z,29.33
2018-04-30T00:47:41.783Z,32.23
2018-04-30T00:50:09.981Z,27.87
2018-04-30T00:52:37.471Z,27.00
2018-04-30T00:55:04.917Z,27.10
2018-04-30T00:57:32.348Z,26.20
2018-04-30T00:59:59.805Z,25.30
2018-04-30T01:02:27.291Z,26.63
2018-04-30T01:04:54.738Z,26.30
2018-04-30T01:07:22.205Z,26.47
2018-04-30T01:09:49.662Z,26.13
2018-04-30T01:12:18.954Z,26.60
2018-04-30T01:14:46.399Z,27.77
2018-04-30T01:17:13.874Z,28.77
2018-04-30T01:19:41.307Z,27.83
2018-04-30T01:22:08.771Z,26.67
2018-04-30T01:24:36.243Z,26.87
2018-04-30T01:27:03.714Z,25.43
2018-04-30T01:29:31.162Z,22.57
2018-04-30T01:31:58.621Z,20.33
2018-04-30T01:34:26.048Z,20.93
2018-04-30T01:36:54.255Z,19.97
2018-04-30T01:39:21.723Z,19.43
2018-04-30T01:41:49.165Z,17.73
2018-04-30T01:44:16.617Z,15.13
2018-04-30T01:46:44.055Z,15.03
2018-04-30T01:49:12.275Z,15.47
2018-04-30T01:51:39.707Z,14.20
2018-04-30T01:54:07.171Z,14.10
2018-04-30T01:56:34.651Z,14.17
2018-04-30T01:59:02.107Z,15.13
2018-04-30T02:01:29.535Z,12.50
2018-04-30T02:03:56.977Z,13.23
2018-04-30T02:06:24.435Z,15.53
2018-04-30T02:08:51.911Z,14.27
2018-04-30T02:11:19.355Z,14.80
2018-04-30T02:13:46.793Z,14.07
2018-04-30T02:16:14.238Z,14.20
2018-04-30T02:18:41.762Z,13.30
2018-04-30T02:21:09.227Z,13.57
2018-04-30T02:23:36.659Z,12.30
2018-04-30T02:26:04.099Z,12.13
2018-04-30T02:28:31.531Z,12.77
2018-04-30T02:30:59.729Z,10.53
2018-04-30T02:33:27.199Z,10.07
2018-04-30T02:35:55.379Z,11.50
2018-04-30T02:38:22.861Z,10.77
2018-04-30T02:40:50.291Z,8.93
2018-04-30T02:43:17.775Z,11.57
2018-04-30T02:45:45.202Z,11.80
2018-04-30T02:48:12.639Z,12.10
2018-04-30T02:50:40.086Z,12.00
2018-04-30T02:53:08.295Z,10.93
2018-04-30T02:55:35.740Z,12.97
2018-04-30T02:58:03.198Z,10.87
2018-04-30T03:00:30.662Z,10.80
2018-04-30T03:02:58.145Z,12.43
2018-04-30T03:05:25.591Z,11.43
2018-04-30T03:07:53.035Z,12.40
2018-04-30T03:10:20.489Z,12.03
2018-04-30T03:12:47.956Z,13.37
2018-04-30T03:15:15.391Z,12.97
2018-04-30T03:17:42.851Z,14.47
2018-04-30T03:20:10.299Z,12.63
2018-04-30T03:22:37.752Z,11.33
2018-04-30T03:25:05.245Z,12.97
2018-04-30T03:27:32.684Z,11.30
2018-04-30T03:30:00.112Z,14.57
2018-04-30T03:32:28.355Z,12.87
2018-04-30T03:34:55.783Z,16.07
2018-04-30T03:37:23.246Z,15.03
2018-04-30T03:39:50.708Z,16.10
2018-04-30T03:42:18.150Z,16.47
2018-04-30T03:44:45.585Z,15.13
2018-04-30T03:47:13.022Z,14.77
2018-04-30T03:49:41.248Z,16.87
2018-04-30T03:52:08.695Z,15.47
2018-04-30T03:54:36.160Z,16.97
2018-04-30T03:57:03.707Z,15.60
2018-04-30T03:59:31.150Z,15.70
2018-04-30T04:02:10.568Z,16.63
2018-04-30T04:04:50.727Z,16.63
2018-04-30T04:07:18.951Z,14.27
2018-04-30T04:09:46.403Z,18.70
2018-04-30T04:12:13.830Z,17.27
2018-04-30T04:14:41.289Z,18.10
2018-04-30T04:17:08.715Z,18.23
2018-04-30T04:19:36.231Z,16.47
2018-04-30T04:22:03.779Z,16.90
2018-04-30T04:24:31.252Z,18.90
2018-04-30T04:26:58.693Z,20.80
2018-04-30T04:29:26.149Z,19.43
2018-04-30T04:31:53.585Z,20.23
2018-04-30T04:34:21.019Z,23.17
2018-04-30T04:36:48.526Z,20.83
2018-04-30T04:39:15.979Z,22.70
2018-04-30T04:41:43.514Z,22.57
2018-04-30T04:44:10.895Z,23.57
2018-04-30T04:46:38.335Z,23.93
2018-04-30T04:49:05.785Z,25.50
2018-04-30T04:51:33.229Z,23.47
2018-04-30T04:54:01.423Z,28.63
2018-04-30T04:56:28.855Z,24.60
2018-04-30T04:58:56.299Z,24.03
2018-04-30T05:01:23.759Z,27.73
2018-04-30T05:03:51.219Z,27.87
2018-04-30T05:06:18.763Z,25.97
2018-04-30T05:08:46.240Z,28.20
2018-04-30T05:11:13.746Z,28.17
2018-04-30T05:13:41.227Z,29.27
2018-04-30T05:16:08.666Z,25.23
2018-04-30T05:18:36.126Z,32.87
2018-04-30T05:21:03.619Z,28.47
2018-04-30T05:23:31.050Z,25.73
2018-04-30T05:25:58.511Z,29.83
2018-04-30T05:28:25.959Z,29.13
2018-04-30T05:30:53.408Z,29.63
2018-04-30T05:33:20.857Z,29.60
2018-04-30T05:35:48.322Z,30.50
2018-04-30T05:38:15.781Z,32.50
2018-04-30T05:40:43.246Z,32.90
2018-04-30T05:43:10.687Z,29.83
2018-04-30T05:45:38.166Z,30.17
2018-04-30T05:48:05.614Z,28.43
2018-04-30T05:50:33.115Z,29.03
2018-04-30T05:53:01.359Z,29.97
2018-04-30T05:55:28.795Z,31.43
2018-04-30T05:57:56.248Z,29.43
2018-04-30T06:00:23.778Z,29.13
2018-04-30T06:02:51.180Z,33.10
2018-04-30T06:05:18.642Z,30.93
2018-04-30T06:07:46.107Z,30.73
2018-04-30T06:10:13.648Z,30.17
2018-04-30T06:12:41.109Z,32.70
2018-04-30T06:15:08.636Z,33.77
2018-04-30T06:17:36.058Z,31.83
2018-04-30T06:20:03.527Z,32.60
2018-04-30T06:22:31.731Z,27.03
2018-04-30T06:24:59.218Z,30.80
2018-04-30T06:27:26.775Z,29.13
2018-04-30T06:29:54.247Z,29.60
2018-04-30T06:32:21.679Z,28.97
2018-04-30T06:34:49.250Z,29.60
2018-04-30T06:37:16.707Z,28.90
2018-04-30T06:39:44.166Z,26.97
2018-04-30T06:42:11.608Z,28.77
2018-04-30T06:44:39.051Z,28.57
2018-04-30T06:47:06.524Z,27.33
2018-04-30T06:49:33.946Z,27.37
2018-04-30T06:52:02.256Z,28.60
2018-04-30T06:54:29.733Z,27.50
2018-04-30T06:56:57.174Z,28.23
2018-04-30T06:59:25.283Z,30.53
2018-04-30T07:01:52.727Z,30.37
2018-04-30T07:04:20.181Z,31.17
2018-04-30T07:06:47.615Z,28.93
2018-04-30T07:09:15.116Z,26.80
2018-04-30T07:11:42.511Z,25.37
2018-04-30T07:14:09.994Z,22.90
2018-04-30T07:16:37.463Z,24.53
2018-04-30T07:19:04.922Z,22.80
2018-04-30T07:21:32.391Z,20.73
2018-04-30T07:24:00.598Z,20.23
2018-04-30T07:26:28.823Z,21.53
2018-04-30T07:28:56.266Z,19.77
2018-04-30T07:31:23.741Z,20.67
2018-04-30T07:33:51.183Z,19.97
2018-04-30T07:36:18.654Z,20.87
2018-04-30T07:38:46.098Z,19.03
2018-04-30T07:41:13.564Z,18.17
2018-04-30T07:43:40.994Z,21.07
2018-04-30T07:46:08.453Z,22.47
2018-04-30T07:48:35.900Z,19.10
2018-04-30T07:51:03.376Z,19.93
2018-04-30T07:53:30.875Z,19.50
2018-04-30T07:55:58.316Z,18.53
2018-04-30T07:58:25.777Z,20.43
2018-04-30T08:00:53.313Z,20.03
2018-04-30T08:03:20.786Z,16.87
2018-04-30T08:05:48.239Z,20.57
2018-04-30T08:08:15.692Z,19.00
2018-04-30T08:10:43.167Z,17.20
2018-04-30T08:13:10.604Z,16.40
2018-04-30T08:15:38.037Z,16.70
2018-04-30T08:18:05.531Z,15.30
2018-04-30T08:20:32.972Z,14.60
2018-04-30T08:23:00.427Z,14.77
2018-04-30T08:25:27.884Z,18.03
2018-04-30T08:27:55.331Z,14.77
2018-04-30T08:30:22.787Z,14.97
2018-04-30T08:32:50.235Z,17.40
2018-04-30T08:35:17.674Z,16.47
2018-04-30T08:37:45.881Z,15.40
2018-04-30T08:40:13.351Z,17.57
2018-04-30T08:42:40.795Z,14.80
2018-04-30T08:45:08.351Z,17.80
2018-04-30T08:47:35.720Z,16.50
2018-04-30T08:50:03.169Z,15.07
2018-04-30T08:52:30.608Z,15.83
2018-04-30T08:54:58.070Z,17.17
2018-04-30T08:57:25.601Z,14.90
2018-04-30T08:59:53.031Z,15.73
2018-04-30T09:02:20.471Z,13.83
2018-04-30T09:04:47.911Z,13.87
2018-04-30T09:07:15.474Z,14.67
2018-04-30T09:09:42.945Z,14.27
2018-04-30T09:12:10.391Z,13.70
2018-04-30T09:14:37.841Z,13.30
2018-04-30T09:17:05.281Z,13.80
2018-04-30T09:19:32.891Z,18.45
2018-04-30T09:22:00.327Z,14.87
2018-04-30T09:24:27.773Z,14.67
2018-04-30T09:26:55.643Z,14.70
2018-04-30T09:29:23.151Z,13.73
2018-04-30T09:31:50.586Z,14.17
2018-04-30T09:34:18.196Z,13.23
2018-04-30T09:36:46.923Z,13.97
2018-04-30T09:39:14.366Z,12.27
2018-04-30T09:41:42.626Z,13.00
2018-04-30T09:44:10.071Z,13.73
2018-04-30T09:46:37.606Z,13.50
2018-04-30T09:49:05.129Z,12.97
2018-04-30T09:51:32.624Z,13.10
2018-04-30T09:54:00.069Z,14.57
2018-04-30T09:56:27.506Z,13.63
2018-04-30T09:58:54.955Z,13.20
2018-04-30T10:01:22.390Z,12.43
2018-04-30T10:03:50.595Z,15.43
2018-04-30T10:06:18.939Z,14.90
2018-04-30T10:08:47.173Z,13.67
2018-04-30T10:11:14.762Z,14.80
2018-04-30T10:13:42.228Z,14.13
2018-04-30T10:16:09.950Z,14.30
2018-04-30T10:18:37.408Z,16.30
2018-04-30T10:21:05.387Z,14.73
2018-04-30T10:23:32.995Z,15.17
2018-04-30T10:26:00.383Z,16.47
2018-04-30T10:28:27.959Z,18.47
2018-04-30T10:30:55.327Z,10.67
2018-04-30T10:33:22.779Z,13.67
2018-04-30T10:35:50.219Z,11.83
2018-04-30T10:38:17.670Z,11.20
2018-04-30T10:40:45.123Z,11.17
2018-04-30T10:43:12.591Z,9.53
2018-04-30T10:45:40.049Z,10.90
2018-04-30T10:48:07.486Z,10.30
2018-04-30T10:50:34.995Z,10.17
2018-04-30T10:53:02.561Z,10.30
2018-04-30T10:55:29.999Z,9.80
2018-04-30T10:57:57.435Z,10.17
2018-04-30T11:00:24.899Z,10.50
2018-04-30T11:02:53.107Z,9.67
2018-04-30T11:05:20.535Z,8.50
2018-04-30T11:07:48.746Z,11.03
2018-04-30T11:10:16.175Z,8.67
2018-04-30T11:12:44.505Z,9.43
2018-04-30T11:15:11.923Z,8.40
2018-04-30T11:17:39.508Z,8.83
2018-04-30T11:20:06.950Z,9.30
2018-04-30T11:22:34.386Z,8.63
2018-04-30T11:25:02.590Z,7.17
2018-04-30T11:27:30.070Z,10.07
2018-04-30T11:29:57.514Z,8.00
2018-04-30T11:32:24.939Z,7.87
2018-04-30T11:34:52.371Z,9.18
2018-04-30T11:37:20.592Z,8.80
2018-04-30T11:39:48.040Z,8.75
2018-04-30T11:42:15.487Z,7.37
2018-04-30T11:44:42.919Z,7.17
2018-04-30T11:47:11.191Z,6.90
2018-04-30T11:49:38.599Z,7.57
2018-04-30T11:52:06.031Z,7.20
2018-04-30T11:54:33.515Z,7.77
2018-04-30T11:57:00.969Z,7.07
2018-04-30T11:59:28.401Z,7.37
2018-04-30T12:01:56.307Z,5.93
2018-04-30T12:04:23.755Z,6.10
2018-04-30T12:06:51.267Z,5.60
2018-04-30T12:09:19.477Z,5.50
2018-04-30T12:11:46.981Z,5.43
2018-04-30T12:14:15.954Z,5.67
2018-04-30T12:16:43.400Z,5.00
2018-04-30T12:19:10.824Z,5.30
2018-04-30T12:21:38.290Z,5.30
2018-04-30T12:24:05.735Z,5.23
2018-04-30T12:26:33.168Z,5.00
2018-04-30T12:29:00.660Z,5.33
2018-04-30T12:31:28.096Z,3.77
2018-04-30T12:33:56.320Z,4.37
2018-04-30T12:36:23.794Z,4.27
2018-04-30T12:38:51.227Z,4.77
2018-04-30T12:41:18.663Z,4.43
2018-04-30T12:43:46.214Z,3.67
2018-04-30T12:46:13.601Z,4.43
2018-04-30T12:48:41.031Z,4.30
2018-04-30T12:51:08.471Z,4.80
2018-04-30T12:53:36.782Z,5.20
2018-04-30T12:56:04.289Z,5.40
2018-04-30T12:58:31.665Z,5.77
2018-04-30T13:00:59.891Z,5.23
2018-04-30T13:03:27.327Z,5.27
2018-04-30T13:05:54.780Z,5.30
2018-04-30T13:08:22.261Z,5.33
2018-04-30T13:10:49.721Z,4.60
2018-04-30T13:13:17.167Z,5.37
2018-04-30T13:15:44.608Z,5.10
2018-04-30T13:18:12.075Z,4.73
2018-04-30T13:20:39.529Z,6.33
2018-04-30T13:23:06.961Z,3.13
2018-04-30T13:25:34.407Z,0.80
2018-04-30T13:28:02.619Z,0.93
2018-04-30T13:30:30.071Z,1.10
2018-04-30T13:32:57.491Z,0.93
2018-04-30T13:35:24.947Z,0.90
2018-04-30T13:37:52.377Z,0.80
2018-04-30T13:40:19.819Z,1.10
2018-04-30T13:42:48.027Z,1.47
2018-04-30T13:45:15.491Z,1.13
2018-04-30T13:47:42.933Z,0.80
2018-04-30T13:50:10.406Z,0.80
2018-04-30T13:52:37.847Z,1.07
2018-04-30T13:55:05.271Z,0.97
2018-04-30T13:57:33.495Z,0.80
2018-04-30T14:00:01.883Z,1.00
2018-04-30T14:02:29.351Z,0.80
2018-04-30T14:04:56.799Z,0.60
2018-04-30T14:07:24.235Z,1.00
2018-04-30T14:09:51.672Z,0.70
2018-04-30T14:12:19.119Z,0.70
2018-04-30T14:14:46.543Z,0.80
2018-04-30T14:17:13.985Z,0.90
2018-04-30T14:19:41.412Z,1.10
2018-04-30T14:22:08.843Z,1.10
2018-04-30T14:24:37.043Z,1.00
2018-04-30T14:27:04.535Z,1.10
2018-04-30T14:29:31.963Z,0.70
2018-04-30T14:31:59.388Z,0.90
2018-04-30T14:34:27.603Z,0.80
2018-04-30T14:36:55.052Z,0.90
2018-04-30T14:39:22.476Z,1.27
2018-04-30T14:41:50.682Z,0.93
2018-04-30T14:44:18.159Z,0.80
2018-04-30T14:46:45.624Z,1.13
2018-04-30T14:49:13.063Z,1.10
2018-04-30T14:51:40.519Z,1.27
2018-04-30T14:54:07.976Z,1.20
2018-04-30T14:56:35.423Z,1.30
2018-04-30T14:59:02.911Z,1.17
2018-04-30T15:01:30.455Z,1.10
2018-04-30T15:03:57.911Z,1.30
2018-04-30T15:06:25.362Z,1.37
2018-04-30T15:08:52.795Z,1.30
2018-04-30T15:11:20.233Z,1.10
2018-04-30T15:13:48.443Z,1.30
2018-04-30T15:16:15.901Z,1.10
2018-04-30T15:18:43.367Z,0.97
2018-04-30T15:21:10.826Z,0.93
2018-04-30T15:23:38.283Z,0.83
2018-04-30T15:26:05.733Z,0.80
2018-04-30T15:28:33.168Z,0.67
2018-04-30T15:31:00.605Z,0.70
2018-04-30T15:33:28.831Z,0.60
2018-04-30T15:35:56.371Z,0.80
2018-04-30T15:38:23.752Z,1.10
2018-04-30T15:40:51.192Z,0.50
2018-04-30T15:43:18.646Z,0.93
2018-04-30T15:45:46.103Z,0.63
2018-04-30T15:48:13.552Z,0.60
2018-04-30T15:50:41.039Z,0.50
2018-04-30T15:53:08.508Z,0.50
2018-04-30T15:55:36.070Z,0.60
2018-04-30T15:58:03.512Z,0.50
2018-04-30T16:00:30.963Z,0.57
2018-04-30T16:02:58.394Z,0.40
2018-04-30T16:05:25.904Z,0.40
2018-04-30T16:07:53.327Z,0.30
2018-04-30T16:10:20.782Z,0.50
2018-04-30T16:12:48.244Z,0.40
2018-04-30T16:15:15.681Z,0.60
2018-04-30T16:17:43.176Z,0.70
2018-04-30T16:20:10.603Z,0.50
2018-04-30T16:22:38.023Z,0.23
2018-04-30T16:25:06.262Z,0.20
2018-04-30T16:27:33.701Z,0.80
2018-04-30T16:30:01.160Z,0.20
2018-04-30T16:32:28.611Z,0.57
2018-04-30T16:34:56.049Z,0.43
2018-04-30T16:37:23.551Z,0.40
2018-04-30T16:39:50.995Z,0.47
2018-04-30T16:42:18.429Z,0.50
2018-04-30T16:44:45.859Z,0.30
2018-04-30T16:47:14.128Z,0.43
2018-04-30T16:49:41.559Z,0.73
2018-04-30T16:52:08.975Z,0.30
2018-04-30T16:54:36.458Z,0.50
2018-04-30T16:57:03.955Z,0.43
2018-04-30T16:59:32.138Z,0.70
2018-04-30T17:02:00.351Z,0.47
2018-04-30T17:04:27.793Z,0.80
2018-04-30T17:06:55.980Z,0.30
2018-04-30T17:09:23.471Z,0.30
2018-04-30T17:11:51.016Z,0.70
2018-04-30T17:14:18.459Z,0.40
2018-04-30T17:16:45.895Z,0.57
2018-04-30T17:19:13.334Z,0.50
2018-04-30T17:21:41.563Z,0.50
2018-04-30T17:24:09.007Z,0.37
2018-04-30T17:26:36.473Z,0.63
2018-04-30T17:29:03.929Z,2.30
2018-04-30T17:31:31.396Z,1.17
2018-04-30T17:33:58.928Z,0.33
2018-04-30T17:36:26.375Z,0.10
2018-04-30T17:38:53.791Z,0.13
2018-04-30T17:41:21.388Z,0.80
2018-04-30T17:43:48.775Z,0.60
2018-04-30T17:46:16.209Z,0.37
2018-04-30T17:48:43.692Z,0.53
2018-04-30T17:51:11.119Z,0.30
2018-04-30T17:53:38.596Z,0.30
2018-04-30T17:56:07.261Z,0.43
2018-04-30T17:58:34.783Z,0.30
2018-04-30T18:01:02.306Z,0.30
2018-04-30T18:03:29.747Z,0.40
2018-04-30T18:05:57.164Z,0.33
2018-04-30T18:08:25.399Z,0.20
2018-04-30T18:10:52.827Z,0.50
2018-04-30T18:13:20.265Z,0.50
2018-04-30T18:15:48.474Z,0.23
2018-04-30T18:18:15.907Z,0.50
2018-04-30T18:20:43.332Z,0.50
2018-04-30T18:23:10.775Z,0.40
2018-04-30T18:25:38.251Z,0.20
2018-04-30T18:28:07.175Z,0.27
2018-04-30T18:30:34.967Z,0.40
2018-04-30T18:33:02.455Z,0.40
2018-04-30T18:35:29.899Z,0.37
2018-04-30T18:37:57.327Z,0.40
2018-04-30T18:40:24.856Z,0.37
2018-04-30T18:42:53.042Z,0.63
2018-04-30T18:45:20.602Z,0.60
2018-04-30T18:47:47.959Z,1.30
2018-04-30T18:50:15.460Z,0.40
2018-04-30T18:52:43.742Z,2.13
2018-04-30T18:55:11.991Z,2.40
2018-04-30T18:57:39.463Z,0.93
2018-04-30T19:00:06.897Z,6.60
2018-04-30T19:02:34.359Z,9.13
2018-04-30T19:05:02.529Z,6.87
2018-04-30T19:07:29.990Z,6.90
2018-04-30T19:09:57.451Z,11.80
2018-04-30T19:12:24.927Z,11.37
2018-04-30T19:14:52.381Z,9.63
2018-04-30T19:17:19.803Z,5.70
2018-04-30T19:19:47.287Z,1.70
2018-04-30T19:22:14.780Z,1.80
2018-04-30T19:24:43.736Z,1.50
2018-04-30T19:27:11.187Z,1.10
2018-04-30T19:29:38.626Z,0.50
2018-04-30T19:32:06.120Z,0.67
2018-04-30T19:34:33.615Z,0.40
2018-04-30T19:37:01.815Z,0.57
2018-04-30T19:39:29.244Z,0.50
2018-04-30T19:41:56.752Z,0.40
2018-04-30T19:44:24.179Z,0.50
2018-04-30T19:46:52.410Z,0.50
2018-04-30T19:49:21.973Z,0.63
2018-04-30T19:51:50.367Z,0.37
2018-04-30T19:54:17.795Z,0.70
2018-04-30T19:56:45.212Z,1.00
2018-04-30T19:59:12.760Z,0.70
2018-04-30T20:01:40.207Z,0.67
2018-04-30T20:04:07.671Z,0.70
2018-04-30T20:06:35.104Z,0.80
2018-04-30T20:09:02.599Z,1.17
2018-04-30T20:11:29.978Z,0.90
2018-04-30T20:13:57.407Z,0.93
2018-04-30T20:16:24.855Z,1.60
2018-04-30T20:18:52.294Z,1.47
2018-04-30T20:21:19.770Z,1.60
2018-04-30T20:23:47.187Z,1.53
2018-04-30T20:26:14.620Z,1.40
2018-04-30T20:28:42.839Z,1.50
2018-04-30T20:31:10.299Z,1.50
2018-04-30T20:33:37.715Z,1.60
2018-04-30T20:36:05.910Z,1.70
2018-04-30T20:38:33.332Z,1.70
2018-04-30T20:41:01.538Z,2.10
2018-04-30T20:43:28.975Z,2.30
2018-04-30T20:45:57.195Z,2.43
2018-04-30T20:48:24.650Z,2.50
2018-04-30T20:50:52.083Z,3.20
2018-04-30T20:53:19.531Z,3.30
2018-04-30T20:55:47.735Z,4.45
2018-04-30T20:58:15.189Z,4.13
2018-04-30T21:00:42.662Z,5.15
2018-04-30T21:03:10.094Z,5.83
2018-04-30T21:05:37.526Z,5.90
2018-04-30T21:08:05.724Z,6.87
2018-04-30T21:10:33.231Z,7.40
2018-04-30T21:13:00.770Z,7.60
2018-04-30T21:15:28.203Z,8.17
2018-04-30T21:17:55.622Z,8.27
2018-04-30T21:20:23.138Z,9.63
2018-04-30T21:22:50.627Z,10.77
2018-04-30T21:25:18.067Z,11.40
2018-04-30T21:27:45.513Z,12.73
2018-04-30T21:30:12.939Z,12.67
2018-04-30T21:32:40.367Z,12.87
2018-04-30T21:35:08.584Z,14.57
2018-04-30T21:37:36.100Z,13.83
2018-04-30T21:40:03.661Z,16.67
2018-04-30T21:42:31.935Z,16.97
2018-04-30T21:44:59.351Z,17.10
2018-04-30T21:47:26.810Z,18.10
2018-04-30T21:49:54.218Z,19.50
2018-04-30T21:52:22.418Z,19.53
2018-04-30T21:54:49.862Z,19.30
2018-04-30T21:57:18.068Z,20.47
2018-04-30T21:59:45.527Z,20.10
2018-04-30T22:02:12.967Z,20.33
2018-04-30T22:04:40.439Z,18.87
2018-04-30T22:07:07.875Z,19.00
2018-04-30T22:09:35.371Z,19.67
2018-04-30T22:12:02.815Z,18.80
2018-04-30T22:14:30.269Z,18.67
2018-04-30T22:16:57.700Z,16.70
2018-04-30T22:19:25.183Z,17.07
2018-04-30T22:21:52.630Z,17.33
2018-04-30T22:24:20.060Z,15.07
2018-04-30T22:26:48.271Z,16.20
2018-04-30T22:29:15.726Z,10.57
2018-04-30T22:31:43.215Z,10.20
2018-04-30T22:34:10.655Z,8.90
2018-04-30T22:36:38.091Z,8.47
2018-04-30T22:39:05.519Z,4.80
2018-04-30T22:41:33.769Z,4.10
2018-04-30T22:44:01.181Z,2.73
2018-04-30T22:46:28.649Z,2.37
2018-04-30T22:48:56.090Z,2.77
2018-04-30T22:51:23.519Z,1.83
2018-04-30T22:53:51.717Z,1.70
2018-04-30T22:56:19.201Z,1.90
2018-04-30T22:58:46.620Z,2.40
2018-04-30T23:01:14.115Z,1.80
2018-04-30T23:03:41.534Z,1.77
2018-04-30T23:06:09.019Z,1.57
2018-04-30T23:08:36.478Z,1.60
2018-04-30T23:11:03.955Z,2.10
2018-04-30T23:13:31.379Z,1.90
2018-04-30T23:15:58.887Z,1.60
2018-04-30T23:18:27.189Z,1.60
2018-04-30T23:20:54.539Z,1.60
2018-04-30T23:23:22.735Z,1.90
2018-04-30T23:25:50.226Z,1.37
2018-04-30T23:28:18.602Z,1.37
2018-04-30T23:30:46.027Z,1.60
2018-04-30T23:33:13.467Z,1.50
2018-04-30T23:35:41.671Z,1.20
2018-04-30T23:38:09.084Z,1.30
2018-04-30T23:40:38.046Z,1.20
2018-04-30T23:43:05.483Z,1.10
2018-04-30T23:45:32.911Z,1.00
2018-04-30T23:48:01.215Z,1.33
2018-04-30T23:50:28.643Z,1.43
2018-04-30T23:52:56.867Z,1.30
2018-04-30T23:55:24.303Z,1.33
2018-04-30T23:57:51.772Z,1.50
